Ride Results

Mudgee Endurance Ride (11-05-2019)
Ride distance: 80.0 km

Outcomes - Mudgee Endurance Ride (11-05-2019)
Division No. of Entries Retired / DNE Completed Withdrawn Ineligible V/O Percentage Completed
HW 28 - 25 1 - 2 89.29%
MW 28 - 22 1 - 5 78.57%
LW 29 - 27 - - 2 93.10%
JN 11 - 10 - - 1 90.91%
Totals 96 - 84 2 - 10 87.50%
Results - Mudgee Endurance Ride (11-05-2019)
No. Rider Horse Place Time Leg Speeds Total
Km/Hr
H/R bpm
Heavyweight
49 Con Bouzianis Conderosa Zaheera 1 4:25:00 17.6, 18.6 18.11 34, 37, 43 (Avg:40)
33 John Robertson Cedar Ridge Hy Regard 2 (BC) 4:38:00 17.6, 16.9 17.27 32, 37, 46 (Avg:41)
78 Steve Brooks A'landell Pirate 3 6:14:00 14.2, 11.6 12.83 44, 40, 46 (Avg:43)
26 Alan Mackinder Jezabelle Sweet Dreams 4 6:15:00 13.9, 11.8 12.80 32, 43, 46 (Avg:44)
215 Jo Davis Jamal Desert Mist 5 6:16:00 13.7, 11.9 12.77 32, 40, 50 (Avg:45)
58 Charles Gauci Krystal Creek Apache Gold 6 6:32:00 13.2, 11.3 12.24 44, 44, 48 (Avg:46)
216 Rod Mitchell Aloha Tribal Warrior 7 6:37:00 13.5, 10.9 12.09 36, 42, 48 (Avg:45)
38 Steve Finnane Bobby 8 6:44:00 13.7, 10.4 11.88 38, 42, 57 (Avg:49)
35 Robert Catlin Avita 9 6:46:00 12.3, 11.3 11.82 36, 45, 59 (Avg:52)
219 Ian Dreghorn Ausden Nile Prins 9 6:46:00 13.7, 10.3 11.82 33, 45, 34 (Avg:39)
68 Jason Duff Imparja Murlak 9 6:46:00 12.1, 11.4 11.82 36, 43, 52 (Avg:47)
83 Gavin Peacock Eclipse 12 6:47:00 10.8, 12.9 11.79 36, 42, 48 (Avg:45)
19 Brett Pevy Regal Buddie 13 6:55:00 12.1, 11.0 11.57 38, 48, 52 (Avg:50)
17 Gary Pevy Burren-Dah Walter 14 6:56:00 12.1, 11.0 11.54 34, 39, 48 (Avg:43)
85 Vernon Brown Prince 15 7:04:00 12.7, 10.1 11.32 36, 46, 60 (Avg:53)
73 Keith Sumpner Fonda 15 7:04:00 12.1, 10.5 11.32 40, 38, 40 (Avg:39)
61 Nigel Colefax Conderosa Assim 17 7:13:00 10.9, 11.2 11.09 30, 30, 42 (Avg:36)
14 Stephen Deering Anzac 18 7:51:00 11.8, 8.9 10.19 38, 42, 52 (Avg:47)
57 Marita Rifai Wee Warra Yasmina 19 8:02:00 11.8, 8.5 9.96 40, 42, 44 (Avg:43)
63 Monique Echentille Follydown Kadin 20 8:06:00 10.9, 9.0 9.88 36, 47, 59 (Avg:53)
65 Haydn Fisher Kailani Shatara 21 8:12:00 11.0, 8.7 9.76 44, 31, 46 (Avg:38)
46 Brad Jones Shellal Jive 21 8:12:00 12.1, 8.1 9.76 33, 49, 58 (Avg:53)
66 Susan Luthy Kailani Phillippe 21 8:12:00 11.0, 8.7 9.76 36, 48, 52 (Avg:50)
36 John Howe Ashbend Perazzi 24 8:30:00 9.1, 9.6 9.41 40, 44, 58 (Avg:51)
24 Heather Nagle Aloha Dash 25 8:46:00 9.7, 8.6 9.13 36, 40, 46 (Avg:43)
18 Tomeika Bond-Pevy Mr Bo-Jangles Heart Rate L2 0:00:00 12.1, 11.0 - 36, 41, 68 (Avg:54)
37 Brian Swan Arabesque Abdul Lame L2 0:00:00 15.9, 10.8 - 33, 48, 45 (Avg:46)
39 Tracey Morley Pulse Nasir W/D after vetting P/R 0:00:00 - - 39
Middleweight
16 Debbie Pevy Galaxy Mi 1 (BC) 4:56:00 15.5, 16.9 16.22 36, 54, 45 (Avg:49)
44 Louise Piddington Trazir Amir Rhazzikh 2 5:01:00 17.2, 14.8 15.95 30, 40, 45 (Avg:42)
208 Kylie Jonkers Girilambone Comet 3 5:38:00 15.7, 12.9 14.20 33, 34, 36 (Avg:35)
210 Heather Parry Flemingo SS 4 5:55:00 15.5, 11.9 13.52 36, 47, 50 (Avg:48)
206 Ian Curtis Blake's Heaven Summer Wind 5 6:03:00 13.3, 13.1 13.22 34, 34, 42 (Avg:38)
51 Andrew Mackinder Sundown Park Cariad 6 6:15:00 13.9, 11.8 12.80 25, 36, 42 (Avg:39)
217 Erica Allan Waugoola Creek Onyx 7 6:16:00 13.7, 11.9 12.77 36, 42, 46 (Avg:44)
69 Sue Warren Warren Park Mishaala 7 6:16:00 13.7, 11.8 12.77 44, 37, 38 (Avg:37)
203 Geraldine Stuart Kolahai Jailahn 9 6:19:00 15.7, 10.5 12.66 38, 41, 39 (Avg:40)
25 Michele Ladmore Azale Aladdin 10 6:42:00 12.4, 11.4 11.94 36, 44, 51 (Avg:47)
52 Chris Noonan Sharaul Lucifaa 11 6:43:00 12.3, 11.5 11.91 34, 35, 41 (Avg:38)
12 Jennifer Gilbertson Webbs Creek Cattle Baron 12 6:44:00 14.3, 10.1 11.88 28, 39, 42 (Avg:40)
32 Clare Feary Equilo 13 6:45:00 12.3, 11.3 11.85 40, 39, 47 (Avg:43)
86 Nicolle Brown Kie-Al Nasarian 14 7:04:00 12.7, 10.1 11.32 34, 43, 46 (Avg:44)
22 Brett Willis Tamboolou Beau Jangles 15 7:07:00 11.3, 11.1 11.24 42, 48, 50 (Avg:49)
77 Amanda Doyle Aqaba Captain Blood 16 7:12:00 11.1, 11.1 11.11 41, 45, 59 (Avg:52)
48 Tom Bouzianis Conderosa Fiona 17 7:13:00 10.9, 11.2 11.09 36, 41, 42 (Avg:41)
72 Phoebe Baczocha Colo Eclipse 18 8:02:00 8.8, 11.3 9.96 40, 42, 59 (Avg:50)
62 Karen Anderson Malleegrove Ladakh 19 8:06:00 11.0, 8.9 9.88 44, 34, 46 (Avg:40)
64 Dean Walkom Tall Timbers Roberto 19 8:06:00 10.9, 9.0 9.88 40, 44, 48 (Avg:46)
81 Nicole Dookwah Aloha Saladin 21 8:30:00 9.1, 9.6 9.41 46, 39, 38 (Avg:38)
23 Leisa Courtman Zimba 22 8:46:00 9.7, 8.6 9.13 30, 41, 42 (Avg:41)
201 Sonia Bonham Box Hill Sapphire Lame L2 0:00:00 9.1, 9.5 - 26, 33, 36 (Avg:34)
59 Imogen Carrey Charleville Commanche Red Lame L2 0:00:00 13.2, 11.3 - 27, 40, 42 (Avg:41)
30 Sean Griffin Taku Lame L2 0:00:00 18.4, 17.7 - 31, 36, 41 (Avg:38)
54 Ross Pead Tequila Sheila Metabolics severe L2 0:00:00 12.6, 9.4 - 36, 40, 60 (Avg:50)
27 Thomas Hermann Wasabi Lame L1 0:00:00 13.4 - 44, 38 (Avg:38)
31 Ruth Van der Wegen Aloha Aktar W/D after vetting P/R 0:00:00 - - 36
Lightweight
207 Fia Hasko-Stewart Blake's Heaven Venus 1 4:38:00 18.4, 16.2 17.27 35, 42, 44 (Avg:43)
45 Allix Jones Shellal Blue 2 (BC) 4:43:00 16.7, 17.1 16.96 34, 40, 44 (Avg:42)
220 Amanda Myers Grattai Station Traveller 2 4:43:00 16.6, 17.2 16.96 39, 44, 49 (Avg:46)
82 Tiana Baldock Pumba 4 4:54:00 16.9, 15.7 16.33 32, 37, 42 (Avg:39)
75 Caroline Bouvresse Box Hill Jackpot 5 5:00:00 16.3, 15.6 16.00 37, 30, 40 (Avg:35)
76 Kate Pilley Aloha Zulm 5 5:00:00 16.3, 15.6 16.00 28, 32, 42 (Avg:37)
213 Clare Fleming Warrawee Gay Paree 7 5:10:00 16.7, 14.3 15.48 32, 38, 48 (Avg:43)
13 Makayla Circosta Tamlyn PL Amira Shari 8 5:38:00 15.4, 13.1 14.20 35, 40, 53 (Avg:46)
41 Elizabeth Moir Kenya s Gold 8 5:38:00 15.3, 13.1 14.20 32, 36, 48 (Avg:42)
209 Julie Hooper Delilah 10 6:03:00 13.2, 13.1 13.22 34, 39, 51 (Avg:45)
43 Ann English Makhtar 11 6:04:00 15.9, 11.2 13.19 34, 45, 40 (Avg:42)
47 Susan Woodward Cinbel-A-Chanele 11 6:04:00 15.9, 11.2 13.19 36, 41, 57 (Avg:49)
55 Shirley Clark Oso Zoltan 13 6:07:00 16.2, 10.9 13.08 34, 43, 34 (Avg:38)
79 Julie Brooks Harmere Jameel 14 6:14:00 14.2, 11.6 12.83 36, 45, 52 (Avg:48)
15 Anne Hills Karabil Serer 14 6:14:00 14.3, 11.5 12.83 34, 39, 48 (Avg:43)
50 Marion Grove Diamond R Carbo 16 6:16:00 14.1, 11.6 12.77 38, 43, 57 (Avg:50)
74 Leanne Holz Orizhan 16 6:16:00 14.2, 11.5 12.77 36, 42, 49 (Avg:45)
87 Faith Robinson Espirit Serena 18 6:19:00 16.1, 10.4 12.66 38, 41, 40 (Avg:40)
53 Patricia Melchior Majic Drago 19 6:22:00 12.5, 12.5 12.57 32, 49, 47 (Avg:48)
28 Antonia Somerville Manana Dolores 20 6:23:00 12.1, 12.9 12.53 42, 40, 47 (Avg:43)
218 Belinda Hollingworth Buckwell Park Endeavour 21 6:32:00 13.1, 11.4 12.24 40, 41, 46 (Avg:43)
221 Nicola Dwyer Shamazan Desert Breeze 22 6:51:00 11.3, 12.0 11.68 36, 43, 50 (Avg:46)
20 Kim Hill Twinkle 23 7:07:00 11.3, 11.1 11.24 36, 41, 46 (Avg:43)
60 Juliana Nunez Conderosa Perseus 24 7:13:00 10.9, 11.2 11.09 44, 44, 40 (Avg:42)
11 Alison Hegarty Dianna Prince 25 7:14:00 12.9, 9.6 11.06 33, 40, 42 (Avg:41)
42 Linda Logan Willow Valley Dartanyan 26 8:02:00 11.8, 8.5 9.96 36, 38, 44 (Avg:41)
29 Avril Cummins C-Biskit 27 8:03:00 12.3, 8.3 9.94 38, 40, 36 (Avg:38)
56 Sara Worner Tequila Lame L2 0:00:00 8.7, 8.9 - 36, 33, 42 (Avg:37)
70 Sue Todd Shakari Bear Lame L1 0:00:00 16.2 - 38, 41 (Avg:41)
Junior
10 Mackensie Daley Nirvana 1 (BC) 4:43:00 17.5, 16.4 16.96 27, 38, 43 (Avg:40)
212 Miranda Hodges Flemingo Papilion 2 5:10:00 16.7, 14.3 15.48 42, 53, 48 (Avg:50)
211 Scarlet McQueen Flemingo Bombastic 3 5:55:00 16.7, 11.3 13.52 37, 55, 55, 55 (Avg:55)
80 Brooke Luthy Mystical Knight 4 6:09:00 12.6, 13.4 13.01 35, 39, 44 (Avg:41)
67 Bella Duff Imparja Kartanya 5 6:46:00 12.1, 11.4 11.82 33, 48, 54 (Avg:51)
21 Julia Hill Belle 6 7:01:00 11.3, 11.4 11.40 41, 40, 48 (Avg:44)
71 Hope Voight Colo Esther 7 8:02:00 8.8, 11.3 9.96 32, 36, 47 (Avg:41)
88 Lara Duff Box Hill Hussy 8 8:33:00 9.1, 9.5 9.36 30, 34, 48 (Avg:41)
202 Charlie Bonham Box Hill Pegasus 9 8:34:00 8.7, 9.9 9.34 27, 30, 38 (Avg:34)
89 Sam Duff Box Hill Tilly Kay 9 8:34:00 8.7, 9.9 9.34 32, 34, 46 (Avg:40)
84 Takira Baldock Saladah Lame L1 0:00:00 12.6 - 28, 38 (Avg:38)